createdAt,value
2023-02-14T00:00:21.934Z,2.07
2023-02-14T00:02:49.483Z,2.17
2023-02-14T00:05:16.078Z,2.06
2023-02-14T00:07:42.576Z,2.10
2023-02-14T00:10:09.595Z,2.12
2023-02-14T00:12:36.194Z,2.06
2023-02-14T00:15:21.236Z,1.97
2023-02-14T00:17:59.492Z,1.99
2023-02-14T00:20:26.816Z,1.88
2023-02-14T00:22:53.403Z,1.97
2023-02-14T00:25:19.937Z,2.02
2023-02-14T00:27:46.423Z,2.02
2023-02-14T00:30:13.236Z,1.97
2023-02-14T00:32:40.381Z,1.99
2023-02-14T00:35:07.447Z,2.01
2023-02-14T00:37:34.013Z,1.88
2023-02-14T00:40:00.593Z,1.96
2023-02-14T00:42:27.137Z,2.07
2023-02-14T00:44:53.632Z,2.08
2023-02-14T00:47:20.178Z,1.91
2023-02-14T00:49:46.691Z,1.81
2023-02-14T00:52:13.271Z,1.91
2023-02-14T00:54:39.804Z,1.82
2023-02-14T00:57:06.322Z,1.86
2023-02-14T00:59:32.814Z,1.91
2023-02-14T01:01:59.329Z,1.97
2023-02-14T01:04:25.849Z,1.84
2023-02-14T01:06:52.337Z,1.81
2023-02-14T01:09:18.846Z,1.76
2023-02-14T01:11:45.331Z,1.91
2023-02-14T01:14:11.815Z,2.00
2023-02-14T01:16:38.427Z,1.91
2023-02-14T01:19:04.919Z,1.90
2023-02-14T01:21:32.864Z,1.80
2023-02-14T01:24:01.299Z,1.87
2023-02-14T01:26:27.996Z,1.77
2023-02-14T01:28:55.013Z,1.70
2023-02-14T01:31:23.722Z,1.70
2023-02-14T01:33:50.392Z,1.77
2023-02-14T01:36:30.174Z,1.73
2023-02-14T01:38:59.042Z,1.68
2023-02-14T01:41:26.987Z,1.58
2023-02-14T01:43:57.420Z,1.62
2023-02-14T01:46:25.105Z,1.68
2023-02-14T01:48:51.616Z,1.83
2023-02-14T01:51:18.780Z,1.69
2023-02-14T01:53:45.268Z,1.74
2023-02-14T01:56:15.095Z,1.71
2023-02-14T01:58:45.344Z,1.72
2023-02-14T02:01:16.177Z,1.73
2023-02-14T02:03:46.837Z,1.70
2023-02-14T02:06:22.292Z,1.71
2023-02-14T02:09:12.269Z,1.64
2023-02-14T02:11:38.788Z,1.56
2023-02-14T02:14:05.226Z,1.62
2023-02-14T02:16:44.809Z,1.47
2023-02-14T02:19:17.293Z,1.65
2023-02-14T02:22:10.484Z,1.85
2023-02-14T02:24:57.497Z,1.97
2023-02-14T02:28:01.014Z,1.83
2023-02-14T02:30:34.968Z,1.79
2023-02-14T02:33:07.000Z,1.73
2023-02-14T02:35:45.584Z,1.61
2023-02-14T02:38:49.579Z,1.66
2023-02-14T02:41:42.000Z,1.61
2023-02-14T02:44:17.236Z,1.66
2023-02-14T02:46:48.990Z,1.68
2023-02-14T02:49:52.420Z,1.71
2023-02-14T02:52:40.490Z,1.69
2023-02-14T02:55:12.471Z,1.60
2023-02-14T02:57:39.574Z,1.64
2023-02-14T03:00:06.684Z,1.65
2023-02-14T03:03:03.223Z,1.75
2023-02-14T03:05:29.704Z,1.62
2023-02-14T03:07:56.214Z,1.54
2023-02-14T03:10:31.312Z,1.71
2023-02-14T03:13:07.891Z,1.73
2023-02-14T03:15:37.006Z,1.69
2023-02-14T03:18:37.203Z,1.64
2023-02-14T03:21:21.960Z,1.52
2023-02-14T03:23:51.387Z,1.55
2023-02-14T03:26:19.996Z,1.51
2023-02-14T03:29:05.227Z,1.63
2023-02-14T03:32:05.930Z,1.49
2023-02-14T03:34:35.773Z,1.60
2023-02-14T03:37:12.592Z,1.60
2023-02-14T03:40:00.597Z,1.48
2023-02-14T03:42:50.805Z,1.54
2023-02-14T03:45:28.250Z,1.68
2023-02-14T03:47:56.463Z,1.66
2023-02-14T03:50:22.948Z,1.48
2023-02-14T03:52:50.693Z,1.48
2023-02-14T03:55:18.465Z,1.54
2023-02-14T03:58:16.489Z,1.57
2023-02-14T04:00:43.034Z,1.66
2023-02-14T04:03:13.915Z,1.74
2023-02-14T04:05:43.880Z,1.86
2023-02-14T04:08:10.869Z,1.88
2023-02-14T04:10:37.405Z,1.72
2023-02-14T04:13:03.870Z,1.68
2023-02-14T04:15:30.410Z,1.69
2023-02-14T04:18:15.579Z,1.81
2023-02-14T04:20:42.086Z,1.83
2023-02-14T04:23:08.580Z,1.87
2023-02-14T04:25:35.062Z,1.79
2023-02-14T04:28:01.529Z,1.68
2023-02-14T04:30:28.050Z,1.57
2023-02-14T04:32:54.622Z,1.52
2023-02-14T04:35:21.107Z,1.39
2023-02-14T04:37:47.553Z,1.36
2023-02-14T04:40:17.332Z,1.34
2023-02-14T04:42:45.154Z,1.20
2023-02-14T04:45:11.620Z,1.18
2023-02-14T04:47:38.199Z,0.98
2023-02-14T04:50:05.103Z,0.89
2023-02-14T04:52:31.682Z,0.75
2023-02-14T04:54:58.431Z,0.79
2023-02-14T04:57:24.961Z,0.74
2023-02-14T04:59:51.441Z,0.50
2023-02-14T05:02:18.070Z,0.49
2023-02-14T05:04:44.621Z,0.44
2023-02-14T05:07:11.806Z,0.42
2023-02-14T05:09:38.615Z,0.50
2023-02-14T05:12:05.237Z,0.31
2023-02-14T05:14:31.758Z,0.28
2023-02-14T05:16:58.360Z,0.26
2023-02-14T05:19:24.878Z,0.39
2023-02-14T05:21:51.341Z,0.40
2023-02-14T05:24:17.893Z,0.37
2023-02-14T05:26:44.369Z,0.26
2023-02-14T05:29:10.832Z,0.26
2023-02-14T05:31:37.431Z,0.24
2023-02-14T05:34:04.007Z,0.29
2023-02-14T05:36:30.612Z,0.16
2023-02-14T05:38:57.236Z,0.28
2023-02-14T05:41:23.712Z,0.25
2023-02-14T05:43:50.189Z,0.23
2023-02-14T05:46:16.779Z,0.25
2023-02-14T05:48:44.327Z,0.41
2023-02-14T05:51:10.873Z,0.39
2023-02-14T05:53:37.776Z,0.18
2023-02-14T05:56:04.589Z,0.01
2023-02-14T05:58:31.305Z,0.04
2023-02-14T06:00:58.663Z,0.00
2023-02-14T06:03:25.554Z,-0.12
2023-02-14T06:05:52.085Z,-0.04
2023-02-14T06:08:18.625Z,-0.09
2023-02-14T06:10:45.136Z,-0.19
2023-02-14T06:13:11.602Z,-0.19
2023-02-14T06:15:38.885Z,-0.28
2023-02-14T06:18:05.680Z,-0.20
2023-02-14T06:20:32.190Z,-0.20
2023-02-14T06:22:58.720Z,-0.19
2023-02-14T06:25:25.309Z,-0.13
2023-02-14T06:27:51.805Z,-0.12
2023-02-14T06:30:18.557Z,0.03
2023-02-14T06:32:45.111Z,0.00
2023-02-14T06:35:11.612Z,-0.13
2023-02-14T06:37:38.886Z,-0.05
2023-02-14T06:40:06.114Z,0.06
2023-02-14T06:42:32.576Z,0.12
2023-02-14T06:44:59.105Z,0.04
2023-02-14T06:47:25.603Z,0.15
2023-02-14T06:49:52.120Z,0.19
2023-02-14T06:52:18.678Z,0.10
2023-02-14T06:54:45.157Z,0.01
2023-02-14T06:57:11.640Z,0.13
2023-02-14T06:59:38.291Z,-0.04
2023-02-14T07:02:04.825Z,-0.02
2023-02-14T07:04:31.384Z,-0.06
2023-02-14T07:06:58.263Z,-0.05
2023-02-14T07:09:24.774Z,-0.13
2023-02-14T07:11:51.466Z,-0.07
2023-02-14T07:14:18.134Z,0.22
2023-02-14T07:16:44.667Z,0.13
2023-02-14T07:19:11.212Z,0.24
2023-02-14T07:21:38.144Z,0.18
2023-02-14T07:24:04.650Z,0.15
2023-02-14T07:26:31.114Z,0.01
2023-02-14T07:28:57.678Z,0.04
2023-02-14T07:31:24.400Z,-0.01
2023-02-14T07:33:51.609Z,0.05
2023-02-14T07:36:18.521Z,0.03
2023-02-14T07:38:45.009Z,0.02
2023-02-14T07:41:11.480Z,-0.02
2023-02-14T07:43:39.628Z,-0.03
2023-02-14T07:46:06.504Z,0.20
2023-02-14T07:48:34.342Z,0.35
2023-02-14T07:51:01.826Z,0.38
2023-02-14T07:53:28.557Z,0.46
2023-02-14T07:55:55.055Z,0.54
2023-02-14T07:58:21.655Z,0.45
2023-02-14T08:00:48.240Z,0.34
2023-02-14T08:03:14.893Z,0.40
2023-02-14T08:05:41.432Z,0.36
2023-02-14T08:08:07.973Z,0.25
2023-02-14T08:10:34.453Z,0.39
2023-02-14T08:13:01.118Z,0.39
2023-02-14T08:15:50.312Z,0.39
2023-02-14T08:18:18.307Z,0.50
2023-02-14T08:20:46.095Z,0.62
2023-02-14T08:23:12.611Z,0.52
2023-02-14T08:25:40.284Z,0.57
2023-02-14T08:28:06.820Z,0.71
2023-02-14T08:30:33.366Z,0.77
2023-02-14T08:33:00.012Z,0.89
2023-02-14T08:35:26.520Z,0.73
2023-02-14T08:37:53.009Z,0.87
2023-02-14T08:40:20.648Z,0.88
2023-02-14T08:42:47.184Z,0.80
2023-02-14T08:45:13.712Z,0.77
2023-02-14T08:47:40.394Z,0.81
2023-02-14T08:50:12.110Z,0.74
2023-02-14T08:52:43.738Z,0.70
2023-02-14T08:55:10.948Z,0.68
2023-02-14T08:57:37.421Z,0.83
2023-02-14T09:00:04.895Z,0.82
2023-02-14T09:02:31.637Z,0.66
2023-02-14T09:04:58.158Z,0.62
2023-02-14T09:07:24.752Z,0.63
2023-02-14T09:09:51.238Z,0.64
2023-02-14T09:12:18.466Z,0.77
2023-02-14T09:14:45.232Z,0.63
2023-02-14T09:17:15.176Z,0.83
2023-02-14T09:19:41.845Z,0.83
2023-02-14T09:22:08.942Z,0.89
2023-02-14T09:24:36.471Z,0.83
2023-02-14T09:27:03.086Z,0.91
2023-02-14T09:29:30.469Z,0.85
2023-02-14T09:31:59.714Z,0.89
2023-02-14T09:34:27.272Z,0.74
2023-02-14T09:37:12.411Z,0.83
2023-02-14T09:39:38.979Z,0.92
2023-02-14T09:42:27.442Z,0.92
2023-02-14T09:45:15.213Z,0.79
2023-02-14T09:47:54.010Z,0.84
2023-02-14T09:50:34.679Z,0.87
2023-02-14T09:53:26.504Z,0.89
2023-02-14T09:56:12.498Z,0.73
2023-02-14T09:58:48.106Z,1.05
2023-02-14T10:01:22.402Z,0.81
2023-02-14T10:04:16.852Z,0.96
2023-02-14T10:06:45.549Z,1.06
2023-02-14T10:09:18.104Z,0.92
2023-02-14T10:11:45.877Z,0.94
2023-02-14T10:14:17.464Z,1.10
2023-02-14T10:16:45.441Z,1.22
2023-02-14T10:19:24.099Z,1.19
2023-02-14T10:21:55.280Z,1.16
2023-02-14T10:24:35.564Z,1.32
2023-02-14T10:27:11.120Z,1.17
2023-02-14T10:29:37.611Z,1.13
2023-02-14T10:32:04.678Z,0.95
2023-02-14T10:34:34.037Z,1.20
2023-02-14T10:37:31.611Z,1.30
2023-02-14T10:40:17.585Z,1.18
2023-02-14T10:42:49.780Z,1.00
2023-02-14T10:45:32.150Z,1.02
2023-02-14T10:48:05.822Z,1.12
2023-02-14T10:50:58.788Z,1.19
2023-02-14T10:53:32.279Z,1.37
2023-02-14T10:56:05.028Z,1.40
2023-02-14T10:58:33.566Z,1.36
2023-02-14T11:01:11.135Z,1.37
2023-02-14T11:03:38.670Z,1.40
2023-02-14T11:06:05.353Z,1.32
2023-02-14T11:08:39.838Z,1.05
2023-02-14T11:11:29.857Z,1.12
2023-02-14T11:13:56.409Z,1.11
2023-02-14T11:16:35.727Z,1.24
2023-02-14T11:19:09.325Z,1.13
2023-02-14T11:21:39.843Z,1.23
2023-02-14T11:24:38.189Z,1.20
2023-02-14T11:27:10.533Z,1.31
2023-02-14T11:29:39.612Z,1.37
2023-02-14T11:32:10.508Z,1.48
2023-02-14T11:34:40.032Z,1.53
2023-02-14T11:37:25.791Z,1.48
2023-02-14T11:39:54.864Z,1.59
2023-02-14T11:42:43.804Z,1.49
2023-02-14T11:45:37.524Z,1.57
2023-02-14T11:48:19.664Z,1.59
2023-02-14T11:51:15.695Z,1.75
2023-02-14T11:53:47.516Z,1.62
2023-02-14T11:56:14.877Z,1.55
2023-02-14T11:58:44.842Z,1.67
2023-02-14T12:01:12.751Z,1.44
2023-02-14T12:03:43.853Z,1.66
2023-02-14T12:06:10.454Z,1.59
2023-02-14T12:08:39.048Z,1.83
2023-02-14T12:11:17.897Z,1.82
2023-02-14T12:13:54.645Z,2.00
2023-02-14T12:16:34.929Z,1.65
2023-02-14T12:19:07.429Z,1.54
2023-02-14T12:21:41.897Z,2.00
2023-02-14T12:24:48.827Z,2.27
2023-02-14T12:27:29.826Z,2.07
2023-02-14T12:30:07.814Z,2.24
2023-02-14T12:32:34.757Z,2.27
2023-02-14T12:35:15.644Z,1.77
2023-02-14T12:38:04.582Z,1.54
2023-02-14T12:40:45.284Z,1.83
2023-02-14T12:43:17.837Z,1.67
2023-02-14T12:45:57.493Z,2.03
2023-02-14T12:48:26.903Z,2.27
2023-02-14T12:50:58.395Z,2.21
2023-02-14T12:53:30.933Z,2.36
2023-02-14T12:56:06.759Z,2.40
2023-02-14T12:58:35.935Z,2.39
2023-02-14T13:01:38.761Z,2.30
2023-02-14T13:04:24.597Z,2.39
2023-02-14T13:06:56.432Z,2.22
2023-02-14T13:09:42.281Z,2.32
2023-02-14T13:12:42.147Z,2.26
2023-02-14T13:15:35.220Z,2.14
2023-02-14T13:18:33.852Z,1.83
2023-02-14T13:21:02.082Z,1.93
2023-02-14T13:23:44.206Z,2.09
2023-02-14T13:26:19.007Z,2.16
2023-02-14T13:29:06.471Z,2.19
2023-02-14T13:31:33.442Z,2.21
2023-02-14T13:34:06.939Z,2.37
2023-02-14T13:36:33.426Z,2.32
2023-02-14T13:38:59.953Z,2.37
2023-02-14T13:41:26.473Z,2.17
2023-02-14T13:43:53.107Z,2.29
2023-02-14T13:46:32.235Z,2.14
2023-02-14T13:48:59.443Z,2.19
2023-02-14T13:51:49.081Z,2.12
2023-02-14T13:54:29.273Z,2.00
2023-02-14T13:56:55.994Z,2.35
2023-02-14T13:59:33.095Z,2.16
2023-02-14T14:02:29.934Z,2.17
2023-02-14T14:04:56.781Z,2.12
2023-02-14T14:07:26.997Z,1.80
2023-02-14T14:09:54.659Z,1.74
2023-02-14T14:12:27.195Z,1.86
2023-02-14T14:15:05.719Z,1.86
2023-02-14T14:17:50.598Z,1.90
2023-02-14T14:20:18.615Z,1.82
2023-02-14T14:22:49.177Z,1.73
2023-02-14T14:25:31.746Z,1.73
2023-02-14T14:27:58.233Z,1.54
2023-02-14T14:30:28.461Z,1.73
2023-02-14T14:32:55.061Z,1.81
2023-02-14T14:35:22.982Z,1.46
2023-02-14T14:37:54.589Z,1.31
2023-02-14T14:40:25.751Z,1.69
2023-02-14T14:42:52.588Z,1.85
2023-02-14T14:45:21.948Z,1.75
2023-02-14T14:47:48.550Z,1.83
2023-02-14T14:50:25.728Z,1.41
2023-02-14T14:52:54.369Z,1.25
2023-02-14T14:55:29.207Z,1.39
2023-02-14T14:58:00.739Z,1.34
2023-02-14T15:00:33.357Z,1.34
2023-02-14T15:03:12.061Z,1.46
2023-02-14T15:05:38.513Z,1.51
2023-02-14T15:08:14.804Z,1.18
2023-02-14T15:10:41.360Z,1.25
2023-02-14T15:13:29.581Z,1.12
2023-02-14T15:15:56.089Z,1.09
2023-02-14T15:18:22.632Z,1.22
2023-02-14T15:20:49.981Z,1.42
2023-02-14T15:23:23.352Z,1.56
2023-02-14T15:25:49.944Z,1.52
2023-02-14T15:28:34.061Z,1.38
2023-02-14T15:31:03.401Z,1.29
2023-02-14T15:33:31.170Z,1.16
2023-02-14T15:36:06.576Z,0.88
2023-02-14T15:38:33.831Z,0.93
2023-02-14T15:41:00.659Z,0.84
2023-02-14T15:43:36.191Z,0.84
2023-02-14T15:46:27.226Z,0.67
2023-02-14T15:48:59.152Z,0.75
2023-02-14T15:51:26.949Z,0.59
2023-02-14T15:53:58.392Z,0.47
2023-02-14T15:56:28.951Z,0.46
2023-02-14T15:59:18.709Z,0.56
2023-02-14T16:02:09.484Z,0.46
2023-02-14T16:04:35.957Z,0.49
2023-02-14T16:07:03.597Z,0.37
2023-02-14T16:09:34.252Z,0.59
2023-02-14T16:12:11.975Z,0.32
2023-02-14T16:14:40.984Z,0.28
2023-02-14T16:17:11.728Z,0.25
2023-02-14T16:19:45.066Z,0.30
2023-02-14T16:22:13.160Z,0.22
2023-02-14T16:24:40.379Z,0.29
2023-02-14T16:27:07.030Z,0.23
2023-02-14T16:29:36.421Z,0.10
2023-02-14T16:32:16.645Z,0.10
2023-02-14T16:34:43.897Z,0.04
2023-02-14T16:37:20.871Z,-0.04
2023-02-14T16:39:47.655Z,-0.10
2023-02-14T16:42:17.436Z,-0.05
2023-02-14T16:44:44.867Z,0.03
2023-02-14T16:47:12.552Z,-0.18
2023-02-14T16:49:39.655Z,-0.16
2023-02-14T16:52:07.060Z,-0.08
2023-02-14T16:54:33.543Z,-0.04
2023-02-14T16:57:03.620Z,-0.14
2023-02-14T16:59:30.444Z,-0.22
2023-02-14T17:01:57.788Z,-0.15
2023-02-14T17:04:24.427Z,0.09
2023-02-14T17:06:53.235Z,-0.02
2023-02-14T17:09:32.024Z,0.02
2023-02-14T17:12:00.744Z,-0.05
2023-02-14T17:14:30.013Z,-0.08
2023-02-14T17:16:56.484Z,-0.08
2023-02-14T17:19:22.988Z,-0.24
2023-02-14T17:21:49.484Z,-0.41
2023-02-14T17:24:15.975Z,-0.57
2023-02-14T17:26:42.511Z,-0.64
2023-02-14T17:29:08.999Z,-0.63
2023-02-14T17:31:35.613Z,-0.69
2023-02-14T17:34:02.454Z,-0.64
2023-02-14T17:36:29.801Z,-0.65
2023-02-14T17:38:56.298Z,-0.60
2023-02-14T17:41:25.010Z,-0.50
2023-02-14T17:43:53.053Z,-0.40
2023-02-14T17:46:19.680Z,-0.57
2023-02-14T17:48:46.576Z,-0.62
2023-02-14T17:51:13.255Z,-0.59
2023-02-14T17:53:41.563Z,-0.58
2023-02-14T17:56:11.156Z,-0.58
2023-02-14T17:58:37.779Z,-0.68
2023-02-14T18:01:08.905Z,-0.66
2023-02-14T18:03:35.683Z,-0.61
2023-02-14T18:06:02.364Z,-0.57
2023-02-14T18:08:36.051Z,-0.43
2023-02-14T18:11:10.127Z,-0.51
2023-02-14T18:13:36.958Z,-0.49
2023-02-14T18:16:16.325Z,-0.40
2023-02-14T18:18:42.826Z,-0.52
2023-02-14T18:21:12.127Z,-0.59
2023-02-14T18:23:38.689Z,-0.60
2023-02-14T18:26:10.910Z,-0.64
2023-02-14T18:28:37.406Z,-0.67
2023-02-14T18:31:08.855Z,-0.70
2023-02-14T18:33:35.663Z,-0.77
2023-02-14T18:36:07.231Z,-0.75
2023-02-14T18:38:34.461Z,-0.77
2023-02-14T18:41:04.941Z,-0.76
2023-02-14T18:43:31.430Z,-0.82
2023-02-14T18:46:04.802Z,-0.83
2023-02-14T18:48:31.451Z,-0.97
2023-02-14T18:51:08.630Z,-0.83
2023-02-14T18:53:36.171Z,-0.66
2023-02-14T18:56:06.818Z,-0.42
2023-02-14T18:58:33.815Z,-0.54
2023-02-14T19:01:07.940Z,-0.62
2023-02-14T19:03:34.462Z,-0.70
2023-02-14T19:06:00.952Z,-0.68
2023-02-14T19:08:31.175Z,-0.86
2023-02-14T19:10:57.809Z,-0.75
2023-02-14T19:13:27.948Z,-0.83
2023-02-14T19:16:00.713Z,-0.60
2023-02-14T19:18:27.181Z,-0.77
2023-02-14T19:20:53.678Z,-0.91
2023-02-14T19:23:20.238Z,-0.96
2023-02-14T19:25:46.707Z,-1.00
2023-02-14T19:28:13.492Z,-1.02
2023-02-14T19:30:40.070Z,-1.03
2023-02-14T19:33:06.852Z,-0.83
2023-02-14T19:35:33.342Z,-1.02
2023-02-14T19:38:03.392Z,-0.97
2023-02-14T19:40:30.769Z,-1.01
2023-02-14T19:42:57.250Z,-0.99
2023-02-14T19:45:23.742Z,-0.97
2023-02-14T19:47:50.647Z,-0.88
2023-02-14T19:50:20.286Z,-0.98
2023-02-14T19:52:46.930Z,-0.96
2023-02-14T19:55:20.612Z,-0.65
2023-02-14T19:57:48.009Z,-0.92
2023-02-14T20:00:16.155Z,-1.08
2023-02-14T20:02:47.902Z,-1.05
2023-02-14T20:05:15.900Z,-1.08
2023-02-14T20:07:43.386Z,-1.14
2023-02-14T20:10:12.685Z,-1.09
2023-02-14T20:12:39.339Z,-1.14
2023-02-14T20:15:06.053Z,-1.13
2023-02-14T20:17:32.795Z,-0.95
2023-02-14T20:19:59.283Z,-1.11
2023-02-14T20:22:26.041Z,-1.30
2023-02-14T20:24:52.530Z,-1.23
2023-02-14T20:27:19.971Z,-1.17
2023-02-14T20:29:46.444Z,-1.21
2023-02-14T20:32:14.762Z,-1.00
2023-02-14T20:34:42.921Z,-1.00
2023-02-14T20:37:10.985Z,-1.05
2023-02-14T20:39:37.526Z,-0.95
2023-02-14T20:42:04.778Z,-1.10
2023-02-14T20:44:31.241Z,-1.12
2023-02-14T20:46:57.751Z,-1.15
2023-02-14T20:49:25.194Z,-1.09
2023-02-14T20:51:52.011Z,-1.03
2023-02-14T20:54:19.239Z,-1.14
2023-02-14T20:56:46.362Z,-1.21
2023-02-14T20:59:12.944Z,-1.18
2023-02-14T21:01:39.575Z,-1.10
2023-02-14T21:04:06.524Z,-1.02
2023-02-14T21:06:33.848Z,-1.28
2023-02-14T21:09:00.469Z,-1.39
2023-02-14T21:11:27.110Z,-1.40
2023-02-14T21:13:59.746Z,-1.35
2023-02-14T21:16:26.359Z,-1.31
2023-02-14T21:18:59.522Z,-1.20
2023-02-14T21:21:26.728Z,-1.35
2023-02-14T21:23:53.300Z,-1.30
2023-02-14T21:26:20.048Z,-1.39
2023-02-14T21:28:46.611Z,-1.42
2023-02-14T21:31:14.509Z,-1.38
2023-02-14T21:33:41.093Z,-1.37
2023-02-14T21:36:08.029Z,-1.18
2023-02-14T21:38:34.767Z,-1.17
2023-02-14T21:41:06.051Z,-1.18
2023-02-14T21:43:37.007Z,-1.16
2023-02-14T21:46:07.902Z,-1.24
2023-02-14T21:48:52.893Z,-1.33
2023-02-14T21:51:19.553Z,-1.38
2023-02-14T21:53:46.094Z,-1.32
2023-02-14T21:56:17.106Z,-1.32
2023-02-14T21:58:44.280Z,-1.27
2023-02-14T22:01:16.310Z,-1.22
2023-02-14T22:03:42.843Z,-1.13
2023-02-14T22:06:10.426Z,-1.06
2023-02-14T22:08:36.911Z,-0.97
2023-02-14T22:11:10.801Z,-0.96
2023-02-14T22:13:37.312Z,-1.05
2023-02-14T22:16:08.331Z,-1.08
2023-02-14T22:18:35.328Z,-0.97
2023-02-14T22:21:05.865Z,-1.18
2023-02-14T22:23:32.770Z,-1.34
2023-02-14T22:26:12.299Z,-1.36
2023-02-14T22:28:39.393Z,-1.39
2023-02-14T22:31:05.929Z,-1.44
2023-02-14T22:33:32.545Z,-1.45
2023-02-14T22:35:59.807Z,-1.47
2023-02-14T22:38:26.862Z,-1.57
2023-02-14T22:40:53.386Z,-1.42
2023-02-14T22:43:20.056Z,-1.43
2023-02-14T22:45:46.663Z,-1.40
2023-02-14T22:48:14.904Z,-1.43
2023-02-14T22:50:41.947Z,-1.33
2023-02-14T22:53:08.438Z,-1.45
2023-02-14T22:55:34.969Z,-1.68
2023-02-14T22:58:01.466Z,-1.63
2023-02-14T23:00:27.963Z,-1.60
2023-02-14T23:02:54.559Z,-1.69
2023-02-14T23:05:21.084Z,-1.58
2023-02-14T23:07:47.626Z,-1.57
2023-02-14T23:10:14.812Z,-1.28
2023-02-14T23:12:59.608Z,-1.28
2023-02-14T23:15:44.741Z,-1.38
2023-02-14T23:18:30.826Z,-1.41
2023-02-14T23:21:15.739Z,-1.50
2023-02-14T23:23:42.183Z,-1.76
2023-02-14T23:26:08.721Z,-1.73
2023-02-14T23:28:35.289Z,-1.75
2023-02-14T23:31:01.920Z,-1.67
2023-02-14T23:33:28.470Z,-1.67
2023-02-14T23:35:55.018Z,-1.60
2023-02-14T23:38:21.488Z,-1.65
2023-02-14T23:41:06.558Z,-1.63
2023-02-14T23:43:33.025Z,-1.71
2023-02-14T23:46:00.163Z,-1.77
2023-02-14T23:48:28.270Z,-1.78
2023-02-14T23:50:59.754Z,-1.69
2023-02-14T23:53:26.361Z,-1.60
2023-02-14T23:55:52.870Z,-1.73
2023-02-14T23:58:19.319Z,-1.63
